createdAt,value
2023-02-15T00:04:00.995Z,4.85
2023-02-15T00:09:04.078Z,4.84
2023-02-15T00:14:09.819Z,4.89
2023-02-15T00:19:15.699Z,4.88
2023-02-15T00:24:20.395Z,4.83
2023-02-15T00:29:23.235Z,4.79
2023-02-15T00:34:29.703Z,4.76
2023-02-15T00:39:33.034Z,4.74
2023-02-15T00:44:35.870Z,4.77
2023-02-15T00:49:38.698Z,4.83
2023-02-15T00:54:41.495Z,4.83
2023-02-15T00:59:44.305Z,4.86
2023-02-15T01:04:47.128Z,4.88
2023-02-15T01:09:49.973Z,4.82
2023-02-15T01:14:52.846Z,4.71
2023-02-15T01:19:55.734Z,4.61
2023-02-15T01:24:58.579Z,4.52
2023-02-15T01:30:01.429Z,4.48
2023-02-15T01:35:05.033Z,4.58
2023-02-15T01:40:14.079Z,4.65
2023-02-15T01:45:33.188Z,4.73
2023-02-15T01:50:45.384Z,4.74
2023-02-15T01:55:57.142Z,4.72
2023-02-15T02:01:01.726Z,4.73
2023-02-15T02:06:04.838Z,4.72
2023-02-15T02:11:15.569Z,4.71
2023-02-15T02:16:45.248Z,4.70
2023-02-15T02:22:09.627Z,4.70
2023-02-15T02:27:33.461Z,4.70
2023-02-15T02:33:22.583Z,4.76
2023-02-15T02:38:29.667Z,4.76
2023-02-15T02:43:55.490Z,4.68
2023-02-15T02:48:58.409Z,4.62
2023-02-15T02:54:06.737Z,4.55
2023-02-15T02:59:25.988Z,4.55
2023-02-15T03:04:34.031Z,4.62
2023-02-15T03:09:45.699Z,4.63
2023-02-15T03:14:54.314Z,4.68
2023-02-15T03:20:03.121Z,4.69
2023-02-15T03:25:18.495Z,4.69
2023-02-15T03:30:24.278Z,4.71
2023-02-15T03:35:40.281Z,4.70
2023-02-15T03:41:06.197Z,4.58
2023-02-15T03:46:34.539Z,4.52
2023-02-15T03:51:41.868Z,4.57
2023-02-15T03:57:04.906Z,4.69
2023-02-15T04:02:32.356Z,4.72
2023-02-15T04:07:35.300Z,4.75
2023-02-15T04:12:38.112Z,4.77
2023-02-15T04:17:40.936Z,4.66
2023-02-15T04:23:03.532Z,4.59
2023-02-15T04:28:08.611Z,4.55
2023-02-15T04:33:11.686Z,4.52
2023-02-15T04:38:14.652Z,4.55
2023-02-15T04:43:17.474Z,4.63
2023-02-15T04:48:20.327Z,4.73
2023-02-15T04:53:23.262Z,4.72
2023-02-15T04:58:26.113Z,4.59
2023-02-15T05:03:29.056Z,4.58
2023-02-15T05:08:32.729Z,4.54
2023-02-15T05:13:35.586Z,4.47
2023-02-15T05:18:38.700Z,4.46
2023-02-15T05:23:41.565Z,4.49
2023-02-15T05:28:44.518Z,4.60
2023-02-15T05:33:48.037Z,4.68
2023-02-15T05:38:51.033Z,4.76
2023-02-15T05:43:57.927Z,4.77
2023-02-15T05:49:00.759Z,4.71
2023-02-15T05:54:03.711Z,4.55
2023-02-15T05:59:06.569Z,4.48
2023-02-15T06:04:09.409Z,4.49
2023-02-15T06:09:13.810Z,4.52
2023-02-15T06:14:16.748Z,4.59
2023-02-15T06:19:20.590Z,4.58
2023-02-15T06:24:23.323Z,4.58
2023-02-15T06:29:26.192Z,4.56
2023-02-15T06:34:29.071Z,4.53
2023-02-15T06:39:32.828Z,4.49
2023-02-15T06:44:35.665Z,4.43
2023-02-15T06:49:38.895Z,4.48
2023-02-15T06:54:41.748Z,4.61
2023-02-15T06:59:44.622Z,4.75
2023-02-15T07:04:47.519Z,4.80
2023-02-15T07:09:50.389Z,4.75
2023-02-15T07:14:53.373Z,4.63
2023-02-15T07:19:56.432Z,4.52
2023-02-15T07:24:59.732Z,4.34
2023-02-15T07:30:03.562Z,4.46
2023-02-15T07:35:06.558Z,4.59
2023-02-15T07:40:09.872Z,4.66
2023-02-15T07:45:12.689Z,4.64
2023-02-15T07:50:15.995Z,4.55
2023-02-15T07:55:19.655Z,4.38
2023-02-15T08:00:25.994Z,4.36
2023-02-15T08:05:29.725Z,4.46
2023-02-15T08:10:51.200Z,4.55
2023-02-15T08:15:54.014Z,4.57
2023-02-15T08:20:56.878Z,4.45
2023-02-15T08:26:01.595Z,4.36
2023-02-15T08:31:13.411Z,4.49
2023-02-15T08:36:19.972Z,4.60
2023-02-15T08:41:30.352Z,4.58
2023-02-15T08:46:37.238Z,4.54
2023-02-15T08:51:40.836Z,4.54
2023-02-15T08:56:46.638Z,4.61
2023-02-15T09:01:52.534Z,4.72
2023-02-15T09:06:56.250Z,4.81
2023-02-15T09:11:59.709Z,4.82
2023-02-15T09:17:02.868Z,4.72
2023-02-15T09:22:06.082Z,4.58
2023-02-15T09:27:08.882Z,4.56
2023-02-15T09:32:16.118Z,4.51
2023-02-15T09:37:18.997Z,4.52
2023-02-15T09:43:08.782Z,4.64
2023-02-15T09:48:23.668Z,4.54
2023-02-15T09:54:01.967Z,4.40
2023-02-15T09:59:45.275Z,4.36
2023-02-15T10:05:01.351Z,4.42
2023-02-15T10:10:50.188Z,4.37
2023-02-15T10:16:21.302Z,4.28
2023-02-15T10:21:45.498Z,4.45
2023-02-15T10:26:49.903Z,4.51
2023-02-15T10:32:15.089Z,4.34
2023-02-15T10:38:22.249Z,4.25
2023-02-15T10:43:50.313Z,4.24
2023-02-15T10:49:24.131Z,4.24
2023-02-15T10:54:50.434Z,4.25
2023-02-15T11:00:16.086Z,4.46
2023-02-15T11:05:50.705Z,4.59
2023-02-15T11:11:03.967Z,4.58
2023-02-15T11:16:18.646Z,4.59
2023-02-15T11:21:40.209Z,4.52
2023-02-15T11:27:11.096Z,4.56
2023-02-15T11:32:22.817Z,4.54
2023-02-15T11:37:37.670Z,4.56
2023-02-15T11:42:42.190Z,4.56
2023-02-15T11:47:45.336Z,4.54
2023-02-15T11:52:53.020Z,4.51
2023-02-15T11:58:24.558Z,4.40
2023-02-15T12:03:47.293Z,4.39
2023-02-15T12:09:01.059Z,4.51
2023-02-15T12:14:09.366Z,4.63
2023-02-15T12:19:44.660Z,4.73
2023-02-15T12:24:49.874Z,4.75
2023-02-15T12:30:08.789Z,4.80
2023-02-15T12:35:23.105Z,5.02
2023-02-15T12:40:31.920Z,5.20
2023-02-15T12:45:37.051Z,5.26
2023-02-15T12:50:42.348Z,5.24
2023-02-15T12:56:04.242Z,5.29
2023-02-15T13:01:10.148Z,5.30
2023-02-15T13:06:13.432Z,5.27
2023-02-15T13:11:35.017Z,5.26
2023-02-15T13:16:41.093Z,5.32
2023-02-15T13:21:49.456Z,5.30
2023-02-15T13:27:09.305Z,5.30
2023-02-15T13:32:39.293Z,5.38
2023-02-15T13:38:17.052Z,5.45
2023-02-15T13:43:37.038Z,5.37
2023-02-15T13:48:53.069Z,5.39
2023-02-15T13:54:26.227Z,5.44
2023-02-15T13:59:57.310Z,5.48
2023-02-15T14:05:15.341Z,5.44
2023-02-15T14:10:48.157Z,5.40
2023-02-15T14:16:18.189Z,5.28
2023-02-15T14:21:33.737Z,5.21
2023-02-15T14:26:51.324Z,5.20
2023-02-15T14:32:05.227Z,5.21
2023-02-15T14:37:13.052Z,5.25
2023-02-15T14:42:31.046Z,5.38
2023-02-15T14:47:43.692Z,5.38
2023-02-15T14:53:34.000Z,5.28
2023-02-15T14:58:55.195Z,5.25
2023-02-15T15:04:04.180Z,5.24
2023-02-15T15:09:28.289Z,5.21
2023-02-15T15:14:34.114Z,5.16
2023-02-15T15:19:52.061Z,5.13
2023-02-15T15:25:12.894Z,5.08
2023-02-15T15:30:15.792Z,5.14
2023-02-15T15:35:55.763Z,5.24
2023-02-15T15:41:13.853Z,5.37
2023-02-15T15:47:16.605Z,5.41
2023-02-15T15:52:22.531Z,5.32
2023-02-15T15:57:39.476Z,5.19
2023-02-15T16:02:53.234Z,5.02
2023-02-15T16:07:56.134Z,4.92
2023-02-15T16:12:59.866Z,4.84
2023-02-15T16:18:03.543Z,4.78
2023-02-15T16:23:29.299Z,4.70
2023-02-15T16:28:32.245Z,4.63
2023-02-15T16:33:41.140Z,4.60
2023-02-15T16:38:43.952Z,4.57
2023-02-15T16:43:49.568Z,4.55
2023-02-15T16:48:54.932Z,4.50
2023-02-15T16:54:06.548Z,4.34
2023-02-15T16:59:37.019Z,4.19
2023-02-15T17:04:40.931Z,4.09
2023-02-15T17:10:01.883Z,3.97
2023-02-15T17:15:04.968Z,3.82
2023-02-15T17:20:16.222Z,3.74
2023-02-15T17:25:33.628Z,3.67
2023-02-15T17:30:39.380Z,3.54
2023-02-15T17:35:42.776Z,3.47
2023-02-15T17:40:45.657Z,3.48
2023-02-15T17:45:51.362Z,3.50
2023-02-15T17:50:54.308Z,3.50
2023-02-15T17:55:57.265Z,3.43
2023-02-15T18:01:23.302Z,3.38
2023-02-15T18:06:45.108Z,3.31
2023-02-15T18:11:50.040Z,3.22
2023-02-15T18:16:53.496Z,3.17
2023-02-15T18:21:57.828Z,3.07
2023-02-15T18:27:00.750Z,2.86
2023-02-15T18:32:08.046Z,2.75
2023-02-15T18:37:22.247Z,2.75
2023-02-15T18:42:31.550Z,2.79
2023-02-15T18:47:34.378Z,2.78
2023-02-15T18:52:39.045Z,2.73
2023-02-15T18:57:44.888Z,2.68
2023-02-15T19:02:48.468Z,2.59
2023-02-15T19:07:52.102Z,2.54
2023-02-15T19:12:55.989Z,2.53
2023-02-15T19:17:58.813Z,2.55
2023-02-15T19:23:02.820Z,2.59
2023-02-15T19:28:32.735Z,2.59
2023-02-15T19:33:36.128Z,2.59
2023-02-15T19:38:41.034Z,2.57
2023-02-15T19:43:46.610Z,2.49
2023-02-15T19:48:51.438Z,2.37
2023-02-15T19:53:55.617Z,2.35
2023-02-15T19:58:59.304Z,2.37
2023-02-15T20:04:02.131Z,2.32
2023-02-15T20:09:05.155Z,2.34
2023-02-15T20:14:14.637Z,2.38
2023-02-15T20:19:17.595Z,2.43
2023-02-15T20:24:22.290Z,2.43
2023-02-15T20:29:25.125Z,2.35
2023-02-15T20:34:28.275Z,2.20
2023-02-15T20:39:32.792Z,2.21
2023-02-15T20:44:37.678Z,2.24
2023-02-15T20:49:40.643Z,2.30
2023-02-15T20:54:43.490Z,2.32
2023-02-15T20:59:46.513Z,2.31
2023-02-15T21:04:50.601Z,2.26
2023-02-15T21:09:54.323Z,2.24
2023-02-15T21:14:57.519Z,2.22
2023-02-15T21:20:00.294Z,2.13
2023-02-15T21:25:03.162Z,2.14
2023-02-15T21:30:18.762Z,2.19
2023-02-15T21:35:22.181Z,2.18
2023-02-15T21:40:31.669Z,2.22
2023-02-15T21:45:52.919Z,2.30
2023-02-15T21:51:14.609Z,2.36
2023-02-15T21:56:23.169Z,2.32
2023-02-15T22:01:28.256Z,2.32
2023-02-15T22:06:31.129Z,2.32
2023-02-15T22:11:34.000Z,2.30
2023-02-15T22:16:36.869Z,2.30
2023-02-15T22:21:39.716Z,2.22
2023-02-15T22:26:42.532Z,2.29
2023-02-15T22:31:45.795Z,2.41
2023-02-15T22:36:48.692Z,2.52
2023-02-15T22:41:53.116Z,2.46
2023-02-15T22:46:56.391Z,2.29
2023-02-15T22:51:59.223Z,2.10
2023-02-15T22:57:02.087Z,1.98
2023-02-15T23:02:06.504Z,1.95
2023-02-15T23:07:18.456Z,1.98
2023-02-15T23:12:53.686Z,1.93
2023-02-15T23:17:56.523Z,1.81
2023-02-15T23:22:59.419Z,1.71
2023-02-15T23:28:02.322Z,1.65
2023-02-15T23:33:06.125Z,1.63
2023-02-15T23:38:29.073Z,1.63
2023-02-15T23:43:31.893Z,1.63
2023-02-15T23:48:38.710Z,1.63
2023-02-15T23:53:41.627Z,1.53
2023-02-15T23:58:47.328Z,1.47
